Time,TemperatureF,DewpointF,PressureIn,WindDirection,WindDirectionDegrees,WindSpeedMPH,WindSpeedGustMPH,Humidity,HourlyPrecipIn,Conditions,Clouds,dailyrainin,SoftwareType,DateUTC
2013-11-27 00:02:00,29.0,25.0,-100.00,East,97,5.0,8.0,83,0.00,,,0.00,,2013-11-27 07:02:00,
2013-11-27 00:22:00,30.0,26.0,-100.00,NE,37,3.0,4.0,83,0.00,,,0.00,,2013-11-27 07:22:00,
2013-11-27 00:32:00,30.0,26.0,-100.00,NE,37,3.0,4.0,83,0.00,,,0.00,,2013-11-27 07:32:00,
2013-11-27 00:52:00,26.0,24.0,-100.00,NE,56,6.0,7.0,90,0.00,,,0.00,,2013-11-27 07:52:00,
2013-11-27 01:02:00,26.0,24.0,-100.00,NE,56,6.0,7.0,90,0.00,,,0.00,,2013-11-27 08:02:00,
2013-11-27 01:21:00,26.0,24.0,-100.00,NE,34,4.0,5.0,91,0.00,,,0.00,,2013-11-27 08:21:00,
2013-11-27 01:32:00,26.0,24.0,-100.00,NE,34,4.0,5.0,91,0.00,,,0.00,,2013-11-27 08:32:00,
2013-11-27 01:52:00,27.0,24.0,-100.00,NNE,32,6.0,8.0,87,0.00,,,0.00,,2013-11-27 08:52:00,
2013-11-27 02:02:00,27.0,24.0,-100.00,NNE,32,6.0,8.0,87,0.00,,,0.00,,2013-11-27 09:02:00,
2013-11-27 02:21:00,24.0,23.0,-100.00,NE,51,3.0,5.0,93,0.00,,,0.00,,2013-11-27 09:21:00,
2013-11-27 02:33:00,24.0,23.0,-100.00,NE,51,3.0,5.0,93,0.00,,,0.00,,2013-11-27 09:33:00,
2013-11-27 02:54:00,24.0,23.0,-100.00,ENE,59,3.0,4.0,97,0.00,,,0.00,,2013-11-27 09:54:00,
2013-11-27 03:03:00,24.0,23.0,-100.00,ENE,59,3.0,4.0,97,0.00,,,0.00,,2013-11-27 10:03:00,
2013-11-27 03:23:00,25.0,23.0,-100.00,NE,45,5.0,6.0,94,0.00,,,0.00,,2013-11-27 10:23:00,
2013-11-27 03:33:00,25.0,23.0,-100.00,NE,45,5.0,6.0,94,0.00,,,0.00,,2013-11-27 10:33:00,
2013-11-27 03:53:00,25.0,23.0,-100.00,NE,42,5.0,7.0,93,0.00,,,0.00,,2013-11-27 10:53:00,
2013-11-27 04:02:00,25.0,23.0,-100.00,NE,42,5.0,7.0,93,0.00,,,0.00,,2013-11-27 11:02:00,
2013-11-27 04:22:00,24.0,23.0,-100.00,NE,45,5.0,6.0,96,0.00,,,0.00,,2013-11-27 11:22:00,
2013-11-27 04:33:00,24.0,23.0,-100.00,NE,45,5.0,6.0,96,0.00,,,0.00,,2013-11-27 11:33:00,
2013-11-27 04:53:00,23.0,22.0,-100.00,NNE,25,4.0,5.0,95,0.00,,,0.00,,2013-11-27 11:53:00,
2013-11-27 05:02:00,23.0,22.0,-100.00,NNE,25,4.0,5.0,95,0.00,,,0.00,,2013-11-27 12:02:00,
2013-11-27 05:21:00,23.0,22.0,-100.00,NE,55,4.0,5.0,94,0.00,,,0.00,,2013-11-27 12:21:00,
2013-11-27 05:32:00,23.0,22.0,-100.00,NE,55,4.0,5.0,94,0.00,,,0.00,,2013-11-27 12:32:00,
2013-11-27 05:52:00,22.0,22.0,-100.00,NE,40,2.0,4.0,97,0.00,,,0.00,,2013-11-27 12:52:00,
2013-11-27 06:02:00,22.0,22.0,-100.00,NE,40,2.0,4.0,97,0.00,,,0.00,,2013-11-27 13:02:00,
2013-11-27 06:22:00,23.0,22.0,-100.00,North,352,4.0,5.0,96,0.00,,,0.00,,2013-11-27 13:22:00,
2013-11-27 06:32:00,23.0,22.0,-100.00,North,352,4.0,5.0,96,0.00,,,0.00,,2013-11-27 13:32:00,
2013-11-27 06:52:00,22.0,21.0,-100.00,North,8,4.0,6.0,97,0.00,,,0.00,,2013-11-27 13:52:00,
2013-11-27 07:02:00,22.0,21.0,-100.00,North,8,4.0,6.0,97,0.00,,,0.00,,2013-11-27 14:02:00,
2013-11-27 07:21:00,21.0,21.0,-100.00,NE,52,5.0,6.0,98,0.00,,,0.00,,2013-11-27 14:21:00,
2013-11-27 07:32:00,21.0,21.0,-100.00,NE,52,5.0,6.0,98,0.00,,,0.00,,2013-11-27 14:32:00,
2013-11-27 07:53:00,22.0,21.0,-100.00,NE,56,4.0,6.0,97,0.00,,,0.00,,2013-11-27 14:53:00,
2013-11-27 08:02:00,22.0,21.0,-100.00,NE,56,4.0,6.0,97,0.00,,,0.00,,2013-11-27 15:02:00,
2013-11-27 08:22:00,23.0,22.0,-100.00,NE,52,5.0,6.0,97,0.00,,,0.00,,2013-11-27 15:22:00,
2013-11-27 08:33:00,23.0,22.0,-100.00,NE,52,5.0,6.0,97,0.00,,,0.00,,2013-11-27 15:33:00,
2013-11-27 08:53:00,22.0,22.0,-100.00,NNE,28,4.0,5.0,97,0.00,,,0.00,,2013-11-27 15:53:00,
2013-11-27 09:04:00,22.0,22.0,-100.00,NNE,28,4.0,5.0,97,0.00,,,0.00,,2013-11-27 16:04:00,
2013-11-27 09:23:00,24.0,23.0,-100.00,NE,44,5.0,6.0,96,0.00,,,0.00,,2013-11-27 16:23:00,
2013-11-27 09:33:00,24.0,23.0,-100.00,NE,44,5.0,6.0,96,0.00,,,0.00,,2013-11-27 16:33:00,
2013-11-27 09:53:00,25.0,24.0,-100.00,NNE,25,6.0,7.0,94,0.00,,,0.00,,2013-11-27 16:53:00,
2013-11-27 10:02:00,25.0,24.0,-100.00,NNE,25,6.0,7.0,94,0.00,,,0.00,,2013-11-27 17:02:00,
2013-11-27 10:22:00,27.0,25.0,-100.00,NNE,13,6.0,7.0,91,0.00,,,0.00,,2013-11-27 17:22:00,
2013-11-27 10:33:00,27.0,25.0,-100.00,NNE,13,6.0,7.0,91,0.00,,,0.00,,2013-11-27 17:33:00,
2013-11-27 10:52:00,31.0,28.0,-100.00,NNE,28,7.0,9.0,87,0.00,,,0.00,,2013-11-27 17:52:00,
2013-11-27 11:02:00,31.0,28.0,-100.00,NNE,28,7.0,9.0,87,0.00,,,0.00,,2013-11-27 18:02:00,
2013-11-27 11:22:00,35.0,30.0,-100.00,NNE,28,6.0,8.0,80,0.00,,,0.00,,2013-11-27 18:22:00,
2013-11-27 11:32:00,35.0,30.0,-100.00,NNE,28,6.0,8.0,80,0.00,,,0.00,,2013-11-27 18:32:00,
2013-11-27 11:52:00,37.0,30.0,-100.00,North,4,6.0,9.0,75,0.00,,,0.00,,2013-11-27 18:52:00,
2013-11-27 12:02:00,37.0,30.0,-100.00,North,4,6.0,9.0,75,0.00,,,0.00,,2013-11-27 19:02:00,
2013-11-27 12:21:00,41.0,30.0,-100.00,NNE,17,6.0,9.0,65,0.00,,,0.00,,2013-11-27 19:21:00,
2013-11-27 12:32:00,41.0,30.0,-100.00,NNE,17,6.0,9.0,65,0.00,,,0.00,,2013-11-27 19:32:00,
2013-11-27 12:52:00,45.0,30.0,-100.00,North,10,6.0,9.0,56,0.00,,,0.00,,2013-11-27 19:52:00,
2013-11-27 13:02:00,45.0,30.0,-100.00,North,10,6.0,9.0,56,0.00,,,0.00,,2013-11-27 20:02:00,
2013-11-27 13:22:00,47.0,29.0,-100.00,NE,38,4.0,6.0,49,0.00,,,0.00,,2013-11-27 20:22:00,
2013-11-27 13:32:00,47.0,29.0,-100.00,NE,38,4.0,6.0,49,0.00,,,0.00,,2013-11-27 20:32:00,
2013-11-27 13:52:00,49.0,28.0,-100.00,NE,35,5.0,7.0,44,0.00,,,0.00,,2013-11-27 20:52:00,
2013-11-27 14:02:00,49.0,28.0,-100.00,NE,35,5.0,7.0,44,0.00,,,0.00,,2013-11-27 21:02:00,
2013-11-27 14:22:00,50.0,28.0,-100.00,NNE,16,4.0,5.0,42,0.00,,,0.00,,2013-11-27 21:22:00,
2013-11-27 14:33:00,50.0,28.0,-100.00,NNE,16,4.0,5.0,42,0.00,,,0.00,,2013-11-27 21:33:00,
2013-11-27 14:53:00,52.0,28.0,-100.00,NNE,18,4.0,5.0,40,0.00,,,0.00,,2013-11-27 21:53:00,
2013-11-27 15:03:00,52.0,28.0,-100.00,NNE,18,4.0,5.0,40,0.00,,,0.00,,2013-11-27 22:03:00,
2013-11-27 15:23:00,52.0,28.0,-100.00,NE,49,2.0,4.0,39,0.00,,,0.00,,2013-11-27 22:23:00,
2013-11-27 15:33:00,52.0,28.0,-100.00,NE,49,2.0,4.0,39,0.00,,,0.00,,2013-11-27 22:33:00,
2013-11-27 15:52:00,53.0,29.0,-100.00,WSW,247,4.0,6.0,40,0.00,,,0.00,,2013-11-27 22:52:00,
2013-11-27 16:02:00,53.0,29.0,-100.00,WSW,247,4.0,6.0,40,0.00,,,0.00,,2013-11-27 23:02:00,
2013-11-27 16:22:00,51.0,29.0,-100.00,ESE,102,3.0,7.0,42,0.00,,,0.00,,2013-11-27 23:22:00,
2013-11-27 16:33:00,51.0,29.0,-100.00,ESE,102,3.0,7.0,42,0.00,,,0.00,,2013-11-27 23:33:00,
2013-11-27 16:42:00,51.0,29.0,-100.00,ESE,102,3.0,7.0,42,0.00,,,0.00,,2013-11-27 23:42:00,
2013-11-27 17:12:00,46.0,30.0,-100.00,SE,131,2.0,4.0,54,0.00,,,0.00,,2013-11-28 00:12:00,
2013-11-27 17:21:00,46.0,30.0,-100.00,SE,131,2.0,4.0,54,0.00,,,0.00,,2013-11-28 00:21:00,
2013-11-27 17:42:00,44.0,29.0,-100.00,ENE,64,4.0,5.0,55,0.00,,,0.00,,2013-11-28 00:42:00,
2013-11-27 18:11:00,44.0,29.0,-100.00,SSE,147,3.0,3.0,55,0.00,,,0.00,,2013-11-28 01:11:00,
2013-11-27 18:42:00,42.0,29.0,-100.00,SW,233,1.0,2.0,60,0.00,,,0.00,,2013-11-28 01:42:00,
2013-11-27 19:12:00,36.0,28.0,-100.00,SE,124,5.0,7.0,73,0.00,,,0.00,,2013-11-28 02:12:00,
2013-11-27 20:11:00,37.0,29.0,-100.00,SSE,164,6.0,8.0,72,0.00,,,0.00,,2013-11-28 03:11:00,
2013-11-27 20:44:00,35.0,28.0,-100.00,SE,127,3.0,5.0,76,0.00,,,0.00,,2013-11-28 03:44:00,
2013-11-27 21:12:00,36.0,29.0,-100.00,South,171,2.0,2.0,74,0.00,,,0.00,,2013-11-28 04:12:00,
2013-11-27 21:23:00,36.0,29.0,-100.00,South,171,2.0,2.0,74,0.00,,,0.00,,2013-11-28 04:23:00,
2013-11-27 21:43:00,36.0,29.0,-100.00,SSW,200,2.0,3.0,76,0.00,,,0.00,,2013-11-28 04:43:00,
2013-11-27 21:52:00,36.0,29.0,-100.00,SSW,200,2.0,3.0,76,0.00,,,0.00,,2013-11-28 04:52:00,
2013-11-27 22:12:00,30.0,27.0,-100.00,NNE,32,2.0,3.0,89,0.00,,,0.00,,2013-11-28 05:12:00,
2013-11-27 22:43:00,31.0,27.0,-100.00,NNE,31,7.0,7.0,83,0.00,,,0.00,,2013-11-28 05:43:00,
2013-11-27 23:12:00,31.0,28.0,-100.00,East,100,1.0,2.0,87,0.00,,,0.00,,2013-11-28 06:12:00,
2013-11-27 23:30:00,28.0,26.0,-100.00,NW,305,0.0,2.0,90,0.00,,,0.00,,2013-11-28 06:30:00,
2013-11-27 23:42:00,33.0,28.0,-100.00,NE,54,2.0,2.0,80,0.00,,,0.00,,2013-11-28 06:42:00,
2013-11-27 23:52:00,33.0,28.0,-100.00,NE,54,2.0,2.0,80,0.00,,,0.00,,2013-11-28 06:52:00,